Time;durP1;ratioP1;P1;durP2;ratioP2;P2;SDS_P1;SDS_P2;PMS_P1;PMS_P2;Temp;Humidity;BMP_temperature;BMP_pressure;BME280_temperature;BME280_humidity;BME280_pressure;Samples;Min_cycle;Max_cycle;Signal;HPM_P1;HPM_P2
2022/05/23 00:00:00;;;;;;;1.37;1.20;;;;;;;14.38;61.62;100331.22;5042229;28;20205;-81
2022/05/23 00:02:26;;;;;;;2.33;1.60;;;;;;;14.37;61.86;100325.13;5014585;28;20254;-81
2022/05/23 00:04:53;;;;;;;1.60;1.40;;;;;;;14.35;61.88;100321.69;5015589;28;20694;-82
2022/05/23 00:07:25;;;;;;;1.60;1.30;;;;;;;14.25;62.15;100315.91;5015830;28;20210;-81
2022/05/23 00:09:52;;;;;;;1.60;1.50;;;;;;;14.13;63.30;100297.13;5015163;28;20204;-81
2022/05/23 00:12:19;;;;;;;1.60;1.50;;;;;;;14.03;64.20;100258.09;5015518;28;20228;-82
2022/05/23 00:14:45;;;;;;;1.53;1.40;;;;;;;14.00;64.36;100250.31;5016061;28;20279;-80
2022/05/23 00:17:13;;;;;;;1.60;1.50;;;;;;;13.94;64.79;100239.19;5014690;28;20211;-81
2022/05/23 00:19:39;;;;;;;2.43;1.50;;;;;;;13.82;65.75;100204.59;5015256;28;20207;-82
2022/05/23 00:22:06;;;;;;;2.97;1.60;;;;;;;13.72;66.59;100191.91;5015606;28;20210;-80
2022/05/23 00:24:34;;;;;;;2.03;1.57;;;;;;;13.69;67.02;100151.72;5018669;28;20211;-81
2022/05/23 00:27:01;;;;;;;3.03;1.60;;;;;;;13.66;66.23;100158.88;5018289;28;20204;-80
2022/05/23 00:29:28;;;;;;;4.33;1.87;;;;;;;13.58;67.68;100150.44;5037485;28;20243;-79
2022/05/23 00:37:23;;;;;;;1.60;1.40;;;;;;;13.51;67.26;100113.91;5052173;28;20297;-79
2022/05/23 00:39:51;;;;;;;2.37;1.40;;;;;;;13.50;66.46;100132.34;5051824;28;20206;-79
2022/05/23 00:45:07;;;;;;;1.90;1.47;;;;;;;13.39;66.99;100148.44;5052753;28;20213;-79
2022/05/23 00:47:34;;;;;;;3.43;1.80;;;;;;;13.33;67.22;100134.69;5051876;28;20724;-79
2022/05/23 00:50:00;;;;;;;2.13;1.50;;;;;;;13.29;68.43;100110.31;5054836;28;20209;-79
2022/05/23 00:52:30;;;;;;;3.20;1.73;;;;;;;13.25;68.48;100096.47;5055395;28;20230;-79
2022/05/23 00:55:00;;;;;;;2.50;1.80;;;;;;;13.28;68.19;100098.97;5055959;28;20272;-80
2022/05/23 00:57:31;;;;;;;3.90;1.80;;;;;;;13.27;69.10;100065.81;5053631;28;20210;-79
2022/05/23 00:59:59;;;;;;;1.90;1.60;;;;;;;13.26;69.42;100055.38;5028552;28;20558;-80
2022/05/23 01:02:26;;;;;;;2.83;1.70;;;;;;;13.27;69.20;100057.09;5015468;28;20220;-79
2022/05/23 01:04:53;;;;;;;2.47;1.60;;;;;;;13.28;68.88;100066.69;5015818;28;20620;-79
2022/05/23 01:07:19;;;;;;;2.30;1.67;;;;;;;13.26;69.53;100064.13;5015269;28;20682;-79
2022/05/23 01:09:45;;;;;;;2.50;1.83;;;;;;;13.25;68.59;100078.13;5015558;28;20261;-80
2022/05/23 01:12:13;;;;;;;3.67;2.10;;;;;;;13.27;68.20;100096.41;5015953;28;20235;-79
2022/05/23 01:14:49;;;;;;;2.77;2.20;;;;;;;13.22;67.98;100109.69;5016036;28;20204;-80
2022/05/23 01:17:16;;;;;;;3.20;2.90;;;;;;;13.03;67.46;100133.03;5015708;28;20757;-79
2022/05/23 01:19:42;;;;;;;3.07;2.87;;;;;;;13.07;67.35;100126.78;5015140;28;20682;-78
2022/05/23 01:22:20;;;;;;;2.53;2.30;;;;;;;13.11;68.40;100106.59;5015502;28;20277;-80
2022/05/23 01:24:56;;;;;;;3.57;2.40;;;;;;;13.05;68.74;100083.22;5015799;28;20237;-79
2022/05/23 01:27:24;;;;;;;3.50;2.10;;;;;;;12.96;69.06;100073.88;5017990;28;20673;-79
2022/05/23 01:29:51;;;;;;;3.63;2.00;;;;;;;12.97;69.65;100064.28;5046207;28;20253;-79
2022/05/23 01:32:17;;;;;;;3.00;1.93;;;;;;;12.97;69.49;100056.44;5015247;28;20226;-79
2022/05/23 01:34:44;;;;;;;2.07;1.90;;;;;;;12.90;69.98;100038.31;5015647;28;20265;-82
2022/05/23 01:37:11;;;;;;;2.40;2.20;;;;;;;12.83;69.91;100035.94;5014888;28;20345;-79
2022/05/23 01:39:37;;;;;;;5.63;3.27;;;;;;;12.74;70.16;100020.53;5014921;28;20735;-79
2022/05/23 01:42:04;;;;;;;2.77;1.90;;;;;;;12.74;70.30;100013.53;5015497;28;20202;-81
2022/05/23 01:44:33;;;;;;;2.77;2.00;;;;;;;12.69;70.67;100002.38;5015269;28;20739;-78
2022/05/23 01:46:59;;;;;;;1.83;1.73;;;;;;;12.65;71.09;99982.44;5015716;28;20209;-79
2022/05/23 01:49:26;;;;;;;2.43;2.20;;;;;;;12.64;70.59;99986.81;5014521;28;20230;-80
2022/05/23 01:51:52;;;;;;;1.83;1.73;;;;;;;12.65;71.01;99982.44;5015196;28;20285;-80
2022/05/23 01:54:19;;;;;;;2.07;1.97;;;;;;;12.64;71.01;99980.72;5015297;28;20219;-81
2022/05/23 01:56:45;;;;;;;2.27;2.00;;;;;;;12.64;71.02;99965.88;5015230;28;20739;-79
2022/05/23 02:01:57;;;;;;;2.03;1.93;;;;;;;12.62;71.44;99958.97;5014512;28;20241;-78
2022/05/23 02:04:23;;;;;;;2.77;2.10;;;;;;;12.62;71.67;99949.34;5015282;28;20212;-82
2022/05/23 02:06:50;;;;;;;2.30;1.93;;;;;;;12.60;71.97;99935.47;5014518;28;20215;-79
2022/05/23 02:09:26;;;;;;;3.73;2.27;;;;;;;12.62;72.58;99931.03;5014352;28;20285;-79
2022/05/23 02:11:52;;;;;;;2.77;2.10;;;;;;;12.61;73.32;99910.16;5014595;28;20235;-79
2022/05/23 02:14:18;;;;;;;2.20;2.00;;;;;;;12.63;72.48;99897.88;5014677;28;20210;-81
2022/05/23 02:16:45;;;;;;;1.90;1.80;;;;;;;12.68;72.58;99901.16;5014503;28;20212;-79
2022/05/23 02:19:13;;;;;;;2.60;2.40;;;;;;;12.70;72.39;99900.22;5013827;28;20799;-79
2022/05/23 02:21:39;;;;;;;4.30;2.97;;;;;;;12.76;72.12;99924.44;5014190;28;20199;-79
2022/05/23 02:24:06;;;;;;;2.53;2.03;;;;;;;12.72;72.60;99915.84;5015151;28;20876;-79
2022/05/23 02:26:34;;;;;;;2.30;2.00;;;;;;;12.67;73.32;99895.06;5014196;28;20281;-81
2022/05/23 02:29:00;;;;;;;2.40;2.20;;;;;;;12.71;73.25;99901.91;5034916;28;20397;-80
2022/05/23 02:31:28;;;;;;;2.60;2.40;;;;;;;12.69;72.62;99898.47;5019091;28;20238;-80
2022/05/23 02:33:54;;;;;;;2.37;2.20;;;;;;;12.65;72.91;99893.44;5014580;28;20261;-81
2022/05/23 02:36:22;;;;;;;2.63;2.43;;;;;;;12.67;72.73;99900.31;5013873;28;20256;-79
2022/05/23 02:38:49;;;;;;;3.17;2.30;;;;;;;12.55;73.47;99890.28;5013569;28;20239;-83
2022/05/23 02:41:15;;;;;;;2.53;2.30;;;;;;;12.62;73.45;99894.38;5014182;28;20202;-80
2022/05/23 02:43:42;;;;;;;2.90;2.50;;;;;;;12.64;73.42;99889.09;5014777;28;20262;-82
2022/05/23 02:46:09;;;;;;;2.87;2.20;;;;;;;12.61;73.24;99890.06;5014951;28;20618;-82
2022/05/23 02:48:35;;;;;;;2.27;2.07;;;;;;;12.65;73.81;99888.19;5015406;28;20645;-82
2022/05/23 02:51:02;;;;;;;3.80;2.30;;;;;;;12.70;73.31;99900.22;5015176;28;20207;-81
2022/05/23 02:53:29;;;;;;;2.70;2.10;;;;;;;12.66;73.58;99902.97;5016085;28;20207;-83
2022/05/23 02:55:56;;;;;;;2.30;2.10;;;;;;;12.68;73.22;99903.78;5016739;28;20214;-80
2022/05/23 02:58:22;;;;;;;4.63;2.27;;;;;;;12.63;73.91;99895.25;5027218;28;20235;-82
2022/05/23 03:00:49;;;;;;;2.70;2.07;;;;;;;12.61;73.57;99897.06;5031150;28;20207;-81
2022/05/23 03:03:14;;;;;;;3.17;2.77;;;;;;;12.45;73.48;99900.22;5016546;28;20700;-82
2022/05/23 03:05:43;;;;;;;3.33;2.87;;;;;;;12.35;73.28;99932.88;5016217;28;20214;-80
2022/05/23 03:08:11;;;;;;;3.00;2.57;;;;;;;12.32;74.38;99902.41;5016191;28;20231;-83
2022/05/23 03:10:40;;;;;;;5.50;2.50;;;;;;;12.43;74.46;99898.56;5015519;28;20703;-82
2022/05/23 03:13:07;;;;;;;3.10;2.40;;;;;;;12.54;74.50;99899.03;5016047;28;20252;-83
2022/05/23 03:15:34;;;;;;;2.80;2.60;;;;;;;12.64;74.77;99899.56;5016801;28;20577;-83
2022/05/23 03:18:01;;;;;;;3.17;2.87;;;;;;;12.71;73.89;99919.38;5016508;28;20228;-84
2022/05/23 03:20:28;;;;;;;2.80;2.60;;;;;;;12.74;74.60;99918.41;5016362;28;20213;-83
2022/05/23 03:28:25;;;;;;;3.17;2.80;;;;;;;12.69;74.52;99890.63;5034538;28;20228;-84
2022/05/23 03:30:51;;;;;;;2.53;2.10;;;;;;;12.75;74.52;99897.41;5016173;28;20206;-81
2022/05/23 03:33:18;;;;;;;4.27;2.10;;;;;;;12.75;74.35;99897.41;5016579;28;20257;-82
2022/05/23 03:35:45;;;;;;;2.43;2.23;;;;;;;12.72;74.34;99897.50;5016542;28;20208;-83
2022/05/23 03:38:12;;;;;;;2.30;2.20;;;;;;;12.66;74.67;99882.88;5016648;28;20234;-82
2022/05/23 03:40:41;;;;;;;3.40;2.40;;;;;;;12.67;75.34;99874.13;5015845;28;20212;-82
2022/05/23 03:43:08;;;;;;;2.37;2.13;;;;;;;12.65;75.39;99865.47;5017264;28;20677;-84
2022/05/23 03:45:36;;;;;;;2.40;2.10;;;;;;;12.66;76.68;99846.22;5017185;28;20207;-83
2022/05/23 03:48:03;;;;;;;2.30;2.17;;;;;;;12.68;76.66;99817.34;5017181;28;20227;-83
2022/05/23 03:50:32;;;;;;;2.50;2.30;;;;;;;12.78;76.59;99820.47;5016490;28;20214;-83
2022/05/23 03:52:59;;;;;;;3.23;2.50;;;;;;;12.76;76.79;99815.28;5016656;28;20689;-83
2022/05/23 03:55:26;;;;;;;4.27;3.93;;;;;;;12.83;76.34;99818.56;5016968;28;20212;-83
2022/05/23 03:57:54;;;;;;;2.90;2.70;;;;;;;12.86;75.21;99848.09;5027744;28;20213;-83
2022/05/23 04:00:21;;;;;;;3.80;2.63;;;;;;;12.97;73.18;99902.72;5039025;28;20194;-83
2022/05/23 04:02:48;;;;;;;3.33;2.90;;;;;;;13.01;74.15;99911.31;5056692;28;20223;-83
2022/05/23 04:05:17;;;;;;;3.17;2.53;;;;;;;13.02;75.12;99878.94;5056537;28;20224;-83
2022/05/23 04:07:44;;;;;;;3.27;2.67;;;;;;;13.02;75.35;99871.97;5056036;28;20248;-81
2022/05/23 04:10:16;;;;;;;3.70;2.60;;;;;;;13.09;73.63;99881.28;5055513;28;20653;-82
2022/05/23 04:12:42;;;;;;;3.80;3.47;;;;;;;13.16;73.21;99915.09;5055936;28;20232;-82
2022/05/23 04:15:12;;;;;;;3.60;3.30;;;;;;;13.14;73.13;99917.81;5056462;28;20206;-83
2022/05/23 04:17:39;;;;;;;3.50;3.20;;;;;;;13.20;73.06;99922.81;5056698;28;20230;-82
2022/05/23 04:20:08;;;;;;;3.27;2.97;;;;;;;13.27;73.49;99900.69;5056657;28;20236;-83
2022/05/23 04:22:35;;;;;;;3.50;3.20;;;;;;;13.33;73.32;99890.91;5056788;28;20213;-83
2022/05/23 04:25:01;;;;;;;2.87;2.20;;;;;;;13.37;73.95;99880.22;5059318;28;20209;-83
2022/05/23 04:27:28;;;;;;;3.47;2.90;;;;;;;13.42;73.33;99883.53;5057682;28;20238;-83
2022/05/23 04:29:54;;;;;;;2.77;2.57;;;;;;;13.50;74.21;99867.50;5055635;28;20261;-83
2022/05/23 04:35:16;;;;;;;3.50;3.10;;;;;;;13.60;72.96;99895.06;5034393;28;20206;-82
2022/05/23 04:37:44;;;;;;;3.97;3.67;;;;;;;13.69;73.27;99891.19;5028935;28;20289;-81
2022/05/23 04:40:12;;;;;;;3.40;3.20;;;;;;;13.75;72.00;99905.84;5018221;28;20214;-79
2022/05/23 04:42:39;;;;;;;3.30;3.00;;;;;;;13.80;71.11;99924.88;5018317;28;20682;-82
2022/05/23 04:45:06;;;;;;;3.40;3.07;;;;;;;13.83;71.13;99930.00;5018433;28;20211;-82
2022/05/23 04:50:18;;;;;;;4.20;3.83;;;;;;;13.89;70.48;99938.47;5017469;28;20209;-83
2022/05/23 04:52:46;;;;;;;4.33;3.90;;;;;;;13.92;70.65;99941.91;5018329;28;20228;-83
2022/05/23 04:55:13;;;;;;;4.30;3.90;;;;;;;13.98;70.91;99937.25;5018473;28;20219;-81
2022/05/23 04:57:39;;;;;;;5.27;4.00;;;;;;;13.98;71.01;99939.03;5025207;28;20321;-81
2022/05/23 05:00:09;;;;;;;3.93;3.63;;;;;;;13.97;70.62;99918.94;5040522;28;20206;-83
2022/05/23 05:02:37;;;;;;;4.33;4.03;;;;;;;13.99;71.50;99911.84;5057963;28;20625;-80
2022/05/23 05:05:04;;;;;;;4.63;4.23;;;;;;;13.98;71.21;99910.16;5058154;28;20224;-82
2022/05/23 05:07:31;;;;;;;4.17;3.87;;;;;;;14.01;71.32;99903.00;5057528;28;20280;-82
2022/05/23 05:09:57;;;;;;;4.10;3.90;;;;;;;14.06;71.26;99900.19;5057081;28;20253;-81
2022/05/23 05:12:24;;;;;;;4.63;4.23;;;;;;;14.10;71.74;99891.25;5056867;28;20766;-83
2022/05/23 05:14:50;;;;;;;4.77;4.37;;;;;;;14.13;71.72;99895.53;5058033;28;20202;-83
2022/05/23 05:17:17;;;;;;;3.93;3.63;;;;;;;14.13;71.69;99882.41;5056650;28;20706;-83
2022/05/23 05:19:44;;;;;;;6.87;4.60;;;;;;;14.14;71.93;99871.00;5056746;28;20210;-81
2022/05/23 05:22:11;;;;;;;4.43;4.07;;;;;;;14.19;71.46;99861.13;5056674;28;20211;-83
2022/05/23 05:24:37;;;;;;;4.20;3.77;;;;;;;14.21;71.99;99864.53;5057467;28;20233;-82
2022/05/23 05:27:04;;;;;;;4.23;3.93;;;;;;;14.24;71.60;99854.75;5056733;28;20256;-82
2022/05/23 05:29:32;;;;;;;4.20;3.97;;;;;;;14.26;71.63;99842.44;5030069;28;20215;-79
2022/05/23 05:32:05;;;;;;;4.17;3.87;;;;;;;14.26;71.76;99845.06;5028799;28;20223;-79
2022/05/23 05:34:34;;;;;;;4.27;3.97;;;;;;;14.29;72.51;99830.94;5028937;28;20217;-79
2022/05/23 05:37:08;;;;;;;4.53;3.97;;;;;;;14.29;72.63;99815.19;5027537;28;20253;-79
2022/05/23 05:39:37;;;;;;;4.50;4.20;;;;;;;14.31;72.99;99805.50;5026955;28;20190;-79
2022/05/23 05:42:09;;;;;;;4.63;4.33;;;;;;;14.35;73.07;99798.31;5027958;28;21572;-79
2022/05/23 05:44:41;;;;;;;4.23;3.87;;;;;;;14.35;73.45;99790.44;5027163;28;20197;-80
2022/05/23 05:47:12;;;;;;;4.33;3.97;;;;;;;14.38;73.52;99795.56;5027043;28;20222;-78
2022/05/23 05:49:42;;;;;;;4.37;4.07;;;;;;;14.39;73.24;99782.38;5025019;28;20195;-79
2022/05/23 05:52:13;;;;;;;4.67;4.10;;;;;;;14.41;73.09;99784.91;5024419;28;20219;-81
2022/05/23 05:54:41;;;;;;;4.13;3.90;;;;;;;14.42;73.47;99782.22;5025870;28;20236;-81
2022/05/23 05:57:09;;;;;;;6.23;3.97;;;;;;;14.44;73.53;99785.63;5027790;28;20680;-82
2022/05/23 05:59:36;;;;;;;3.60;3.30;;;;;;;14.47;73.85;99785.50;5025978;28;20224;-80
2022/05/23 06:02:02;;;;;;;4.17;3.77;;;;;;;14.48;73.56;99783.72;5026893;28;20224;-83
2022/05/23 06:04:29;;;;;;;3.73;3.43;;;;;;;14.50;73.57;99772.19;5025472;28;20744;-80
2022/05/23 06:12:24;;;;;;;4.07;3.50;;;;;;;14.62;73.56;99764.72;5043945;28;20254;-77
2022/05/23 06:14:51;;;;;;;3.50;3.20;;;;;;;14.66;72.88;99771.53;5032058;28;20259;-81
2022/05/23 06:17:17;;;;;;;8.40;3.60;;;;;;;14.71;72.81;99785.31;5025982;28;20199;-80
2022/05/23 06:19:46;;;;;;;9.17;4.27;;;;;;;14.76;72.06;99798.22;5024745;28;20234;-78
2022/05/23 06:22:13;;;;;;;3.83;3.50;;;;;;;14.78;72.37;99802.47;5026321;28;20240;-80
2022/05/23 06:24:41;;;;;;;3.73;3.37;;;;;;;14.81;71.93;99799.72;5023961;28;20206;-80
2022/05/23 06:27:09;;;;;;;4.37;3.33;;;;;;;14.87;71.63;99812.56;5027028;28;20655;-81
2022/05/23 06:29:37;;;;;;;5.73;4.03;;;;;;;14.89;71.26;99823.84;5025126;28;20200;-79
2022/05/23 06:32:11;;;;;;;3.77;3.07;;;;;;;14.93;70.95;99827.22;5027678;28;20203;-82
2022/05/23 06:34:37;;;;;;;3.70;3.20;;;;;;;14.95;71.04;99840.28;5026099;28;20199;-80
2022/05/23 06:37:04;;;;;;;4.43;3.40;;;;;;;14.98;71.10;99835.72;5025246;28;20254;-80
2022/05/23 06:39:30;;;;;;;4.43;3.50;;;;;;;15.01;71.01;99838.22;5026432;28;20224;-79
2022/05/23 06:41:58;;;;;;;4.63;3.87;;;;;;;15.04;70.53;99843.34;5025891;28;20243;-79
2022/05/23 06:44:24;;;;;;;5.73;3.90;;;;;;;15.07;70.62;99840.53;5024779;28;20639;-78
2022/05/23 06:46:50;;;;;;;4.87;3.30;;;;;;;15.11;70.06;99846.50;5026486;28;20205;-80
2022/05/23 06:49:17;;;;;;;5.00;3.27;;;;;;;15.16;69.87;99835.78;5024896;28;20220;-81
2022/05/23 06:51:48;;;;;;;6.90;3.00;;;;;;;15.24;69.76;99844.13;5025109;28;20195;-81
2022/05/23 06:54:16;;;;;;;5.50;2.80;;;;;;;15.32;69.20;99852.53;5027371;28;20212;-81
2022/05/23 06:56:43;;;;;;;5.03;3.27;;;;;;;15.35;69.03;99867.31;5027018;28;20197;-80
2022/05/23 06:59:11;;;;;;;4.17;3.27;;;;;;;15.42;68.37;99887.09;5023294;28;20312;-79
2022/05/23 07:01:37;;;;;;;7.70;3.77;;;;;;;15.48;67.71;99897.38;5026598;28;20206;-79
2022/05/23 07:04:03;;;;;;;3.60;3.30;;;;;;;15.54;67.28;99906.72;5024298;28;20225;-80
2022/05/23 07:12:23;;;;;;;5.10;3.37;;;;;;;15.76;66.55;99925.00;5027042;28;20200;-81
2022/05/23 07:14:56;;;;;;;12.00;3.67;;;;;;;15.83;66.76;99919.34;5028838;28;20215;-78
2022/05/23 07:17:24;;;;;;;3.60;3.30;;;;;;;15.89;66.59;99918.19;5040323;28;20223;-77
2022/05/23 07:19:50;;;;;;;6.90;3.40;;;;;;;15.91;66.65;99918.13;5038572;28;20211;-79
2022/05/23 07:22:17;;;;;;;4.27;3.30;;;;;;;15.94;66.73;99910.94;5040823;28;20232;-78
2022/05/23 07:24:44;;;;;;;6.43;3.40;;;;;;;15.99;67.32;99887.00;5031930;28;20259;-80
2022/05/23 07:27:12;;;;;;;3.97;3.00;;;;;;;15.99;68.30;99872.06;5027620;28;20205;-81
2022/05/23 07:29:38;;;;;;;3.93;3.00;;;;;;;16.07;67.85;99869.03;5025218;28;20195;-80
2022/05/23 07:32:07;;;;;;;4.00;3.40;;;;;;;16.16;67.37;99889.63;5027640;28;20212;-78
2022/05/23 07:34:34;;;;;;;5.03;3.53;;;;;;;16.22;67.92;99868.25;5024019;28;20703;-79
2022/05/23 07:37:00;;;;;;;3.47;3.10;;;;;;;16.26;68.96;99851.34;5024516;28;20619;-80
2022/05/23 07:39:27;;;;;;;4.33;3.20;;;;;;;16.34;69.28;99829.06;5025324;28;20221;-79
2022/05/23 07:41:53;;;;;;;4.90;2.60;;;;;;;16.46;68.10;99845.03;5026554;28;20224;-80
2022/05/23 07:44:20;;;;;;;3.37;3.03;;;;;;;16.56;67.16;99886.72;5025792;28;20274;-80
2022/05/23 07:46:46;;;;;;;4.80;3.20;;;;;;;16.63;66.06;99923.22;5026148;28;20268;-80
2022/05/23 07:49:14;;;;;;;6.77;3.17;;;;;;;16.71;65.56;99935.13;5023790;28;20226;-80
2022/05/23 07:51:40;;;;;;;3.10;2.90;;;;;;;16.74;65.16;99943.72;5025754;28;20580;-80
2022/05/23 08:02:33;;;;;;;4.27;3.00;;;;;;;16.95;64.24;99970.78;4959122;29;20214;-80
2022/05/23 08:05:01;;;;;;;4.83;2.87;;;;;;;16.96;64.17;99956.66;4999931;28;20198;-80
2022/05/23 08:07:28;;;;;;;3.90;3.47;;;;;;;17.02;64.21;99958.13;5028027;28;20810;-80
2022/05/23 08:09:55;;;;;;;3.40;3.10;;;;;;;17.05;64.00;99966.72;5029115;28;20230;-79
2022/05/23 08:12:22;;;;;;;7.67;3.00;;;;;;;17.09;64.90;99934.94;5029126;28;20212;-79
2022/05/23 08:14:48;;;;;;;3.60;3.30;;;;;;;17.15;64.74;99916.13;5028669;28;20198;-80
2022/05/23 08:17:16;;;;;;;3.67;3.37;;;;;;;17.22;65.22;99907.78;5028493;28;20196;-82
2022/05/23 08:19:42;;;;;;;4.43;3.60;;;;;;;17.30;65.55;99877.47;5029084;28;20205;-79
2022/05/23 08:22:10;;;;;;;6.43;3.50;;;;;;;17.39;65.37;99891.00;5027750;28;20232;-81
2022/05/23 08:24:36;;;;;;;3.30;3.00;;;;;;;17.50;65.06;99884.28;5029012;28;20224;-80
2022/05/23 08:27:04;;;;;;;3.13;2.83;;;;;;;17.57;63.85;99923.44;5028962;28;20209;-80
2022/05/23 08:29:31;;;;;;;4.07;3.37;;;;;;;17.69;63.25;99955.38;5028906;28;20312;-81
2022/05/23 08:31:57;;;;;;;3.40;2.87;;;;;;;17.78;62.36;99968.91;5028133;28;20197;-79
2022/05/23 08:34:24;;;;;;;4.43;3.20;;;;;;;17.86;62.03;99984.34;5029058;28;20201;-79
2022/05/23 08:36:52;;;;;;;4.10;3.40;;;;;;;17.92;61.32;100013.03;5029767;28;20202;-80
2022/05/23 08:39:19;;;;;;;4.30;3.57;;;;;;;17.98;60.96;100035.63;5027611;28;20225;-80
2022/05/23 08:41:48;;;;;;;4.00;3.47;;;;;;;18.08;61.33;100020.06;5027350;28;20200;-80
2022/05/23 08:44:23;;;;;;;3.97;3.47;;;;;;;18.20;60.51;100027.31;5029308;28;20225;-79
2022/05/23 08:46:58;;;;;;;7.47;3.37;;;;;;;18.32;60.73;100020.47;5029803;28;20207;-79
2022/05/23 08:49:41;;;;;;;3.63;3.33;;;;;;;18.46;60.48;100039.03;5029282;28;20230;-80
2022/05/23 08:52:14;;;;;;;3.77;3.37;;;;;;;18.62;60.93;100031.03;5031080;28;20269;-80
2022/05/23 08:55:01;;;;;;;4.23;3.70;;;;;;;18.72;61.06;100031.34;5029021;28;20247;-80
2022/05/23 08:57:35;;;;;;;3.20;3.00;;;;;;;18.85;60.37;100030.56;5033326;28;20665;-79
2022/05/23 09:00:07;;;;;;;5.50;3.70;;;;;;;18.97;60.65;100025.50;5027513;28;20572;-80
2022/05/23 09:02:39;;;;;;;3.47;3.00;;;;;;;19.10;59.67;100033.50;5028576;28;20219;-81
2022/05/23 09:05:10;;;;;;;3.80;3.13;;;;;;;19.23;60.66;100058.28;5027619;28;20265;-80
2022/05/23 09:07:42;;;;;;;3.90;3.50;;;;;;;19.36;59.51;100040.69;5027603;28;20284;-79
2022/05/23 09:10:15;;;;;;;4.90;4.13;;;;;;;19.44;58.86;100064.91;5025092;28;20198;-78
2022/05/23 09:12:42;;;;;;;3.47;3.20;;;;;;;19.44;58.81;100078.16;5026717;28;20201;-79
2022/05/23 09:15:08;;;;;;;4.10;3.47;;;;;;;19.52;60.87;100045.88;5028485;28;20596;-80
2022/05/23 09:17:42;;;;;;;3.63;3.33;;;;;;;19.64;59.55;100023.06;5027381;28;20233;-79
2022/05/23 09:20:13;;;;;;;3.70;3.40;;;;;;;19.71;57.66;100053.56;5025903;28;20637;-79
2022/05/23 09:22:47;;;;;;;4.77;3.93;;;;;;;19.74;57.58;100095.75;5027872;28;20208;-79
2022/05/23 09:25:17;;;;;;;5.63;3.67;;;;;;;19.82;57.68;100074.06;5027664;28;20259;-79
2022/05/23 09:27:49;;;;;;;5.40;3.80;;;;;;;19.83;57.69;100079.25;5027221;28;20232;-79
2022/05/23 09:30:19;;;;;;;4.57;3.53;;;;;;;19.83;56.89;100097.81;5027624;28;20204;-80
2022/05/23 09:32:51;;;;;;;4.40;3.47;;;;;;;19.87;57.50;100082.56;5028374;28;20213;-80
2022/05/23 09:35:20;;;;;;;6.80;3.60;;;;;;;19.90;57.82;100070.94;5028022;28;20199;-80
2022/05/23 09:37:49;;;;;;;5.07;3.87;;;;;;;19.99;57.37;100043.84;5025624;28;20579;-78
2022/05/23 09:40:27;;;;;;;3.63;3.27;;;;;;;20.03;57.84;100048.00;5027167;28;20196;-79
2022/05/23 09:49:02;;;;;;;4.90;4.50;;;;;;;20.48;58.87;99992.06;5027942;28;20321;-79
2022/05/23 09:51:29;;;;;;;5.10;4.70;;;;;;;20.61;58.58;99975.25;5026258;28;20299;-78
2022/05/23 09:54:00;;;;;;;4.50;4.10;;;;;;;20.68;57.13;99993.41;5027603;28;20198;-79
2022/05/23 09:56:41;;;;;;;4.47;4.10;;;;;;;20.78;58.14;99986.50;5027745;28;20210;-78
2022/05/23 09:59:17;;;;;;;5.10;4.63;;;;;;;20.95;57.33;99987.97;5029529;28;20708;-80
2022/05/23 10:01:44;;;;;;;4.97;4.50;;;;;;;21.06;56.14;100029.72;5026366;28;20665;-80
2022/05/23 10:04:16;;;;;;;4.77;4.40;;;;;;;21.03;55.59;100055.50;5027981;28;20240;-79
2022/05/23 10:06:48;;;;;;;4.80;4.30;;;;;;;21.00;56.81;100039.78;5026577;28;20199;-78
2022/05/23 10:09:24;;;;;;;4.43;4.03;;;;;;;21.07;56.31;100028.75;5026888;28;20218;-80
2022/05/23 10:11:55;;;;;;;5.63;4.40;;;;;;;21.18;55.62;100044.78;5026333;28;20199;-79
2022/05/23 10:14:24;;;;;;;4.33;3.93;;;;;;;21.28;55.14;100059.09;5026193;28;20244;-79
2022/05/23 10:16:53;;;;;;;6.43;3.90;;;;;;;21.34;56.25;100060.47;5027636;28;20222;-80
2022/05/23 10:19:31;;;;;;;5.77;4.20;;;;;;;21.45;56.72;100035.84;5025858;28;20222;-79
2022/05/23 10:22:16;;;;;;;4.50;4.10;;;;;;;21.55;56.03;100018.31;5026389;28;20780;-78
2022/05/23 10:24:53;;;;;;;4.33;3.90;;;;;;;21.60;55.18;100037.41;5027299;28;20277;-79
2022/05/23 10:27:32;;;;;;;5.77;4.93;;;;;;;21.69;54.45;100067.81;5028577;28;20202;-78
2022/05/23 10:30:01;;;;;;;4.37;3.97;;;;;;;21.69;54.74;100070.47;5024453;28;20203;-79
2022/05/23 10:32:35;;;;;;;4.07;3.77;;;;;;;21.71;55.32;100041.97;5024645;28;20206;-79
2022/05/23 10:35:09;;;;;;;3.97;3.40;;;;;;;21.75;54.62;100052.28;5024965;28;20295;-81
2022/05/23 10:37:39;;;;;;;5.10;4.70;;;;;;;21.85;55.11;100046.31;5026080;28;20291;-78
2022/05/23 10:43:07;;;;;;;5.00;4.00;;;;;;;22.01;53.42;100082.25;5080514;27;20567;-75
2022/05/23 10:45:41;;;;;;;4.47;4.07;;;;;;;22.04;54.60;100083.88;5060114;28;20185;-73
2022/05/23 10:48:34;;;;;;;5.10;4.40;;;;;;;22.14;52.88;100073.41;5059466;28;20189;-73
2022/05/23 10:51:08;;;;;;;5.43;4.00;;;;;;;22.13;53.22;100099.13;5059571;28;20201;-73
2022/05/23 10:53:54;;;;;;;4.60;4.23;;;;;;;22.20;52.82;100096.91;5058889;28;20779;-73
2022/05/23 10:56:32;;;;;;;5.17;4.40;;;;;;;22.28;52.39;100107.84;5059504;28;20197;-73
2022/05/23 10:59:05;;;;;;;5.10;4.27;;;;;;;22.35;52.08;100121.53;5064166;28;20199;-73
2022/05/23 11:01:45;;;;;;;4.27;3.97;;;;;;;22.40;52.31;100120.25;5060044;28;20216;-73
2022/05/23 11:04:27;;;;;;;4.00;3.70;;;;;;;22.47;53.43;100110.00;5059150;28;20224;-73
2022/05/23 11:07:07;;;;;;;4.73;4.13;;;;;;;22.64;53.72;100081.31;5059327;28;20253;-73
2022/05/23 11:09:40;;;;;;;4.20;3.83;;;;;;;22.85;54.13;99994.47;5058852;28;20582;-73
2022/05/23 11:12:19;;;;;;;3.87;3.47;;;;;;;23.00;51.21;100083.81;5059490;28;20246;-73
2022/05/23 11:15:01;;;;;;;3.50;3.20;;;;;;;23.17;51.35;100105.66;5059331;28;20186;-73
2022/05/23 11:17:33;;;;;;;3.70;3.40;;;;;;;23.35;51.84;100096.25;5059245;28;20243;-72
2022/05/23 11:20:20;;;;;;;3.97;3.37;;;;;;;23.59;52.07;100122.78;5057781;28;20205;-73
2022/05/23 11:22:51;;;;;;;3.83;3.53;;;;;;;23.81;50.81;100137.13;5058911;28;20237;-73
2022/05/23 11:25:26;;;;;;;3.23;2.97;;;;;;;24.05;50.50;100058.81;5059122;28;20193;-73
2022/05/23 11:33:47;;;;;;;5.60;2.80;;;;;;;25.68;44.70;100278.44;5058838;28;20221;-73
2022/05/23 11:36:24;;;;;;;3.90;3.50;;;;;;;25.98;44.05;100284.00;5066749;28;20200;-73
2022/05/23 11:38:52;;;;;;;3.17;2.87;;;;;;;26.10;43.94;100315.88;5067674;28;20208;-74
2022/05/23 11:41:39;;;;;;;4.17;3.80;;;;;;;26.08;43.54;100300.97;5066571;28;20231;-74
2022/05/23 11:44:49;;;;;;;3.60;3.30;;;;;;;25.89;43.90;100326.59;5068188;28;20224;-74
2022/05/23 11:47:21;;;;;;;3.87;3.57;;;;;;;25.79;43.75;100320.34;5005893;28;20206;-74
2022/05/23 11:49:55;;;;;;;4.20;3.70;;;;;;;26.00;44.47;100314.16;5005754;28;20254;-74
2022/05/23 11:52:25;;;;;;;4.07;3.50;;;;;;;26.42;43.66;100304.25;5035791;28;20255;-75
2022/05/23 11:54:52;;;;;;;3.83;3.23;;;;;;;26.90;42.28;100321.47;5054537;28;20198;-75
2022/05/23 11:57:40;;;;;;;4.20;3.83;;;;;;;27.37;42.22;100356.53;5054507;28;20271;-75
2022/05/23 12:00:33;;;;;;;4.17;3.87;;;;;;;27.42;41.16;100329.31;5045482;28;20205;-75
2022/05/23 12:03:08;;;;;;;5.33;3.80;;;;;;;27.14;41.42;100363.97;5054089;28;20233;-74
2022/05/23 12:05:35;;;;;;;3.43;3.23;;;;;;;26.86;44.30;100309.34;5054332;28;20212;-75
2022/05/23 12:08:07;;;;;;;3.73;3.50;;;;;;;26.84;42.94;100276.47;5053910;28;20674;-75
2022/05/23 12:10:54;;;;;;;3.90;3.67;;;;;;;27.03;42.65;100286.38;5053989;28;20201;-75
2022/05/23 12:13:38;;;;;;;4.20;3.83;;;;;;;27.40;41.50;100283.03;5054408;28;20313;-75
2022/05/23 12:16:37;;;;;;;4.33;3.53;;;;;;;27.79;41.23;100310.66;5054134;28;20189;-75
2022/05/23 12:19:27;;;;;;;3.37;3.27;;;;;;;28.59;40.24;100278.09;5053930;28;20202;-75
2022/05/23 12:21:54;;;;;;;3.90;3.60;;;;;;;29.02;38.57;100349.09;5054273;28;20255;-75
2022/05/23 12:24:30;;;;;;;9.87;3.60;;;;;;;29.10;38.98;100406.50;5053706;28;20283;-75
2022/05/23 12:26:59;;;;;;;4.27;3.30;;;;;;;29.34;38.00;100345.13;5053961;28;20216;-75
2022/05/23 12:29:33;;;;;;;3.30;3.00;;;;;;;29.63;38.20;100345.72;5053041;28;20209;-75
2022/05/23 12:32:21;;;;;;;3.57;3.20;;;;;;;29.77;38.58;100379.34;5053867;28;20227;-77
2022/05/23 12:34:52;;;;;;;5.47;3.10;;;;;;;29.91;37.47;100326.75;5053569;28;20567;-77
2022/05/23 12:37:27;;;;;;;4.43;3.73;;;;;;;30.00;37.12;100376.97;4702750;28;10000494;-74